sensor_id;sensor_type;location;lat;lon;timestamp;pressure;altitude;pressure_sealevel;temperature;humidity
44027;BME280;29696;55.698;37.460;2023-05-25T00:01:19;99530.69;;;15.85;87.36
44027;BME280;29696;55.698;37.460;2023-05-25T00:03:45;99534.69;;;15.81;87.39
44027;BME280;29696;55.698;37.460;2023-05-25T00:06:12;99527.06;;;15.78;87.47
44027;BME280;29696;55.698;37.460;2023-05-25T00:08:38;99533.22;;;15.79;87.75
44027;BME280;29696;55.698;37.460;2023-05-25T00:11:08;99522.25;;;15.73;87.70
44027;BME280;29696;55.698;37.460;2023-05-25T00:13:34;99518.91;;;15.71;87.59
44027;BME280;29696;55.698;37.460;2023-05-25T00:16:01;99529.38;;;15.73;87.89
44027;BME280;29696;55.698;37.460;2023-05-25T00:18:27;99536.06;;;15.69;88.20
44027;BME280;29696;55.698;37.460;2023-05-25T00:20:53;99526.41;;;15.68;88.18
44027;BME280;29696;55.698;37.460;2023-05-25T00:23:20;99530.03;;;15.67;88.46
44027;BME280;29696;55.698;37.460;2023-05-25T00:25:46;99517.06;;;15.64;88.58
44027;BME280;29696;55.698;37.460;2023-05-25T00:28:13;99522.91;;;15.67;88.79
44027;BME280;29696;55.698;37.460;2023-05-25T00:30:39;99513.41;;;15.65;88.76
44027;BME280;29696;55.698;37.460;2023-05-25T00:33:06;99527.06;;;15.70;88.71
44027;BME280;29696;55.698;37.460;2023-05-25T00:35:33;99524.41;;;15.70;88.47
44027;BME280;29696;55.698;37.460;2023-05-25T00:38:00;99522.75;;;15.69;88.44
44027;BME280;29696;55.698;37.460;2023-05-25T00:40:26;99521.91;;;15.68;88.42
44027;BME280;29696;55.698;37.460;2023-05-25T00:42:54;99522.59;;;15.70;88.59
44027;BME280;29696;55.698;37.460;2023-05-25T00:45:21;99513.94;;;15.68;88.64
44027;BME280;29696;55.698;37.460;2023-05-25T00:47:50;99522.59;;;15.70;88.85
44027;BME280;29696;55.698;37.460;2023-05-25T00:50:34;99513.75;;;15.70;88.82
44027;BME280;29696;55.698;37.460;2023-05-25T00:53:02;99497.44;;;15.57;88.76
44027;BME280;29696;55.698;37.460;2023-05-25T00:55:32;99489.94;;;15.60;89.16
44027;BME280;29696;55.698;37.460;2023-05-25T00:58:03;99481.59;;;15.55;89.35
44027;BME280;29696;55.698;37.460;2023-05-25T01:00:31;99484.47;;;15.53;89.60
44027;BME280;29696;55.698;37.460;2023-05-25T01:02:58;99484.94;;;15.49;89.34
44027;BME280;29696;55.698;37.460;2023-05-25T01:05:26;99482.47;;;15.47;89.99
44027;BME280;29696;55.698;37.460;2023-05-25T01:07:58;99476.47;;;15.45;90.25
44027;BME280;29696;55.698;37.460;2023-05-25T01:10:29;99477.63;;;15.43;90.76
44027;BME280;29696;55.698;37.460;2023-05-25T01:13:00;99462.84;;;15.40;91.03
44027;BME280;29696;55.698;37.460;2023-05-25T01:15:29;99465.00;;;15.37;91.10
44027;BME280;29696;55.698;37.460;2023-05-25T01:17:56;99464.84;;;15.38;91.25
44027;BME280;29696;55.698;37.460;2023-05-25T01:20:25;99462.19;;;15.38;91.42
44027;BME280;29696;55.698;37.460;2023-05-25T01:23:09;99462.00;;;15.48;91.56
44027;BME280;29696;55.698;37.460;2023-05-25T01:25:42;99462.50;;;15.43;91.59
44027;BME280;29696;55.698;37.460;2023-05-25T01:28:15;99465.16;;;15.43;91.57
44027;BME280;29696;55.698;37.460;2023-05-25T01:30:45;99468.00;;;15.42;91.51
44027;BME280;29696;55.698;37.460;2023-05-25T01:33:13;99467.19;;;15.41;91.49
44027;BME280;29696;55.698;37.460;2023-05-25T01:35:40;99461.19;;;15.39;91.58
44027;BME280;29696;55.698;37.460;2023-05-25T01:38:07;99471.97;;;15.46;91.44
44027;BME280;29696;55.698;37.460;2023-05-25T01:40:35;99457.50;;;15.40;91.14
44027;BME280;29696;55.698;37.460;2023-05-25T01:43:03;99457.34;;;15.42;90.89
44027;BME280;29696;55.698;37.460;2023-05-25T01:45:29;99458.84;;;15.44;90.83
44027;BME280;29696;55.698;37.460;2023-05-25T01:48:24;99459.81;;;15.60;91.11
44027;BME280;29696;55.698;37.460;2023-05-25T01:51:00;99470.28;;;15.61;90.93
44027;BME280;29696;55.698;37.460;2023-05-25T01:53:36;99470.94;;;15.63;90.60
44027;BME280;29696;55.698;37.460;2023-05-25T01:56:08;99485.44;;;15.61;90.62
44027;BME280;29696;55.698;37.460;2023-05-25T01:58:44;99474.63;;;15.70;90.42
44027;BME280;29696;55.698;37.460;2023-05-25T02:01:14;99485.44;;;15.69;90.08
44027;BME280;29696;55.698;37.460;2023-05-25T02:03:41;99473.44;;;15.73;90.12
44027;BME280;29696;55.698;37.460;2023-05-25T02:06:09;99480.41;;;15.82;89.80
44027;BME280;29696;55.698;37.460;2023-05-25T02:08:36;99478.53;;;15.91;89.12
44027;BME280;29696;55.698;37.460;2023-05-25T02:11:02;99483.38;;;15.95;88.58
44027;BME280;29696;55.698;37.460;2023-05-25T02:13:29;99482.50;;;16.03;87.90
44027;BME280;29696;55.698;37.460;2023-05-25T02:15:55;99483.28;;;16.12;87.50
44027;BME280;29696;55.698;37.460;2023-05-25T02:18:22;99487.22;;;16.24;87.27
44027;BME280;29696;55.698;37.460;2023-05-25T02:20:49;99490.31;;;16.44;86.51
44027;BME280;29696;55.698;37.460;2023-05-25T02:23:15;99486.97;;;16.73;85.47
44027;BME280;29696;55.698;37.460;2023-05-25T02:25:44;99491.44;;;17.04;83.82
44027;BME280;29696;55.698;37.460;2023-05-25T02:28:10;99506.16;;;17.38;81.50
44027;BME280;29696;55.698;37.460;2023-05-25T02:30:37;99495.50;;;17.67;80.19
44027;BME280;29696;55.698;37.460;2023-05-25T02:33:04;99501.09;;;18.10;78.24
44027;BME280;29696;55.698;37.460;2023-05-25T02:35:30;99505.50;;;18.54;76.34
44027;BME280;29696;55.698;37.460;2023-05-25T02:37:58;99511.94;;;18.96;74.15
44027;BME280;29696;55.698;37.460;2023-05-25T02:40:24;99521.34;;;19.35;72.67
44027;BME280;29696;55.698;37.460;2023-05-25T02:42:52;99513.03;;;19.73;71.14
44027;BME280;29696;55.698;37.460;2023-05-25T02:45:19;99518.94;;;19.96;69.39
44027;BME280;29696;55.698;37.460;2023-05-25T02:47:45;99510.84;;;20.31;67.88
44027;BME280;29696;55.698;37.460;2023-05-25T02:50:12;99507.28;;;20.59;66.92
44027;BME280;29696;55.698;37.460;2023-05-25T02:52:43;99501.09;;;20.78;66.69
44027;BME280;29696;55.698;37.460;2023-05-25T02:55:10;99509.63;;;20.95;65.77
44027;BME280;29696;55.698;37.460;2023-05-25T02:57:39;99509.44;;;21.10;64.88
44027;BME280;29696;55.698;37.460;2023-05-25T03:00:08;99516.44;;;21.17;64.62
44027;BME280;29696;55.698;37.460;2023-05-25T03:02:37;99526.44;;;21.37;63.90
44027;BME280;29696;55.698;37.460;2023-05-25T03:05:04;99523.94;;;21.49;63.09
44027;BME280;29696;55.698;37.460;2023-05-25T03:07:33;99521.22;;;21.75;62.19
44027;BME280;29696;55.698;37.460;2023-05-25T03:09:59;99519.91;;;22.11;60.84
44027;BME280;29696;55.698;37.460;2023-05-25T03:12:26;99517.13;;;22.44;59.80
44027;BME280;29696;55.698;37.460;2023-05-25T03:14:53;99515.31;;;22.76;58.64
44027;BME280;29696;55.698;37.460;2023-05-25T03:17:21;99523.34;;;22.83;58.94
44027;BME280;29696;55.698;37.460;2023-05-25T03:19:47;99525.22;;;23.14;57.90
44027;BME280;29696;55.698;37.460;2023-05-25T03:22:14;99530.06;;;23.56;56.82
44027;BME280;29696;55.698;37.460;2023-05-25T03:24:40;99525.44;;;24.06;55.16
44027;BME280;29696;55.698;37.460;2023-05-25T03:27:08;99531.72;;;24.55;53.65
44027;BME280;29696;55.698;37.460;2023-05-25T03:29:35;99528.47;;;24.83;53.20
44027;BME280;29696;55.698;37.460;2023-05-25T03:32:02;99539.31;;;25.25;52.13
44027;BME280;29696;55.698;37.460;2023-05-25T03:34:30;99534.50;;;25.63;51.16
44027;BME280;29696;55.698;37.460;2023-05-25T03:37:00;99527.34;;;26.04;49.19
44027;BME280;29696;55.698;37.460;2023-05-25T03:39:26;99518.88;;;26.40;48.42
44027;BME280;29696;55.698;37.460;2023-05-25T03:41:54;99529.47;;;26.82;47.19
44027;BME280;29696;55.698;37.460;2023-05-25T03:44:24;99524.72;;;27.35;46.09
44027;BME280;29696;55.698;37.460;2023-05-25T03:46:51;99516.56;;;27.69;45.35
44027;BME280;29696;55.698;37.460;2023-05-25T03:49:17;99516.47;;;27.97;44.75
44027;BME280;29696;55.698;37.460;2023-05-25T03:51:44;99517.72;;;28.34;43.75
44027;BME280;29696;55.698;37.460;2023-05-25T03:54:12;99520.22;;;28.57;43.02
44027;BME280;29696;55.698;37.460;2023-05-25T03:56:38;99514.72;;;28.79;43.01
44027;BME280;29696;55.698;37.460;2023-05-25T03:59:05;99523.53;;;28.92;41.77
44027;BME280;29696;55.698;37.460;2023-05-25T04:01:31;99514.50;;;29.08;41.70
44027;BME280;29696;55.698;37.460;2023-05-25T04:03:58;99516.78;;;29.21;40.93
44027;BME280;29696;55.698;37.460;2023-05-25T04:06:24;99511.25;;;29.48;40.75
44027;BME280;29696;55.698;37.460;2023-05-25T04:08:51;99512.41;;;29.57;39.47
44027;BME280;29696;55.698;37.460;2023-05-25T04:11:18;99515.88;;;29.80;39.33
44027;BME280;29696;55.698;37.460;2023-05-25T04:13:46;99503.69;;;29.93;39.47
44027;BME280;29696;55.698;37.460;2023-05-25T04:16:13;99499.22;;;30.29;39.24
44027;BME280;29696;55.698;37.460;2023-05-25T04:18:40;99507.97;;;30.31;38.76
44027;BME280;29696;55.698;37.460;2023-05-25T04:21:07;99500.03;;;30.30;38.23
44027;BME280;29696;55.698;37.460;2023-05-25T04:23:33;99490.53;;;30.37;38.64
44027;BME280;29696;55.698;37.460;2023-05-25T04:26:00;99503.78;;;30.81;38.06
44027;BME280;29696;55.698;37.460;2023-05-25T04:28:27;99495.03;;;31.10;37.76
44027;BME280;29696;55.698;37.460;2023-05-25T04:31:03;99497.22;;;31.64;36.81
44027;BME280;29696;55.698;37.460;2023-05-25T04:33:38;99491.56;;;32.25;36.25
44027;BME280;29696;55.698;37.460;2023-05-25T04:36:23;99492.69;;;32.74;34.88
44027;BME280;29696;55.698;37.460;2023-05-25T04:38:50;99495.56;;;32.98;33.61
44027;BME280;29696;55.698;37.460;2023-05-25T04:41:20;99488.78;;;32.46;34.49
44027;BME280;29696;55.698;37.460;2023-05-25T04:43:52;99493.75;;;32.28;34.92
44027;BME280;29696;55.698;37.460;2023-05-25T04:46:19;99497.06;;;32.20;34.71
44027;BME280;29696;55.698;37.460;2023-05-25T04:48:46;99493.50;;;32.20;34.65
44027;BME280;29696;55.698;37.460;2023-05-25T04:51:13;99493.75;;;32.28;34.98
44027;BME280;29696;55.698;37.460;2023-05-25T04:53:39;99501.88;;;32.39;34.42
44027;BME280;29696;55.698;37.460;2023-05-25T04:56:06;99494.41;;;32.60;34.57
44027;BME280;29696;55.698;37.460;2023-05-25T04:58:32;99499.38;;;32.97;33.77
44027;BME280;29696;55.698;37.460;2023-05-25T05:00:59;99504.78;;;33.07;33.63
44027;BME280;29696;55.698;37.460;2023-05-25T05:03:25;99500.69;;;33.05;33.08
44027;BME280;29696;55.698;37.460;2023-05-25T05:05:52;99495.44;;;33.13;33.09
44027;BME280;29696;55.698;37.460;2023-05-25T05:08:24;99492.41;;;32.76;33.06
44027;BME280;29696;55.698;37.460;2023-05-25T05:10:51;99493.06;;;32.57;33.44
44027;BME280;29696;55.698;37.460;2023-05-25T05:13:17;99494.16;;;32.01;33.67
44027;BME280;29696;55.698;37.460;2023-05-25T05:15:44;99499.94;;;31.59;35.08
44027;BME280;29696;55.698;37.460;2023-05-25T05:18:10;99495.78;;;30.75;36.15
44027;BME280;29696;55.698;37.460;2023-05-25T05:20:40;99488.13;;;30.46;36.71
44027;BME280;29696;55.698;37.460;2023-05-25T05:23:07;99489.75;;;30.52;37.74
44027;BME280;29696;55.698;37.460;2023-05-25T05:25:33;99493.84;;;29.87;38.20
44027;BME280;29696;55.698;37.460;2023-05-25T05:28:00;99497.69;;;28.89;39.82
44027;BME280;29696;55.698;37.460;2023-05-25T05:30:33;99488.41;;;27.92;42.41
44027;BME280;29696;55.698;37.460;2023-05-25T05:33:00;99494.84;;;27.01;44.28
44027;BME280;29696;55.698;37.460;2023-05-25T05:35:31;99489.94;;;26.29;45.98
44027;BME280;29696;55.698;37.460;2023-05-25T05:38:05;99494.69;;;26.22;46.53
44027;BME280;29696;55.698;37.460;2023-05-25T05:40:32;99490.16;;;26.39;46.66
44027;BME280;29696;55.698;37.460;2023-05-25T05:42:59;99498.50;;;26.09;47.13
44027;BME280;29696;55.698;37.460;2023-05-25T05:45:25;99494.53;;;25.65;48.67
44027;BME280;29696;55.698;37.460;2023-05-25T05:47:52;99489.09;;;25.30;49.75
44027;BME280;29696;55.698;37.460;2023-05-25T05:50:18;99495.25;;;25.06;50.47
44027;BME280;29696;55.698;37.460;2023-05-25T05:52:45;99496.50;;;24.80;51.05
44027;BME280;29696;55.698;37.460;2023-05-25T05:55:12;99491.59;;;24.59;51.85
44027;BME280;29696;55.698;37.460;2023-05-25T05:57:40;99495.00;;;24.36;52.58
44027;BME280;29696;55.698;37.460;2023-05-25T06:00:07;99494.03;;;24.12;53.23
44027;BME280;29696;55.698;37.460;2023-05-25T06:02:42;99491.88;;;24.02;53.70
44027;BME280;29696;55.698;37.460;2023-05-25T06:05:10;99499.81;;;23.79;54.22
44027;BME280;29696;55.698;37.460;2023-05-25T06:07:39;99491.66;;;23.60;54.55
44027;BME280;29696;55.698;37.460;2023-05-25T06:10:07;99491.94;;;23.52;55.58
44027;BME280;29696;55.698;37.460;2023-05-25T06:12:33;99494.53;;;23.40;56.15
44027;BME280;29696;55.698;37.460;2023-05-25T06:15:00;99491.72;;;23.29;56.20
44027;BME280;29696;55.698;37.460;2023-05-25T06:17:31;99492.25;;;23.12;56.64
44027;BME280;29696;55.698;37.460;2023-05-25T06:19:58;99490.00;;;23.09;57.05
44027;BME280;29696;55.698;37.460;2023-05-25T06:22:25;99493.13;;;23.06;57.36
44027;BME280;29696;55.698;37.460;2023-05-25T06:24:53;99491.13;;;23.01;57.68
44027;BME280;29696;55.698;37.460;2023-05-25T06:27:20;99487.00;;;22.92;58.00
44027;BME280;29696;55.698;37.460;2023-05-25T06:29:48;99484.13;;;22.87;59.37
44027;BME280;29696;55.698;37.460;2023-05-25T06:32:15;99489.78;;;22.79;60.21
44027;BME280;29696;55.698;37.460;2023-05-25T06:34:41;99482.16;;;22.69;59.77
44027;BME280;29696;55.698;37.460;2023-05-25T06:37:08;99478.53;;;22.57;59.86
44027;BME280;29696;55.698;37.460;2023-05-25T06:39:36;99478.94;;;22.54;60.19
44027;BME280;29696;55.698;37.460;2023-05-25T06:42:03;99480.63;;;22.48;60.41
44027;BME280;29696;55.698;37.460;2023-05-25T06:44:32;99472.78;;;22.47;60.07
44027;BME280;29696;55.698;37.460;2023-05-25T06:47:05;99484.19;;;22.42;60.18
44027;BME280;29696;55.698;37.460;2023-05-25T06:49:32;99476.53;;;22.39;60.60
44027;BME280;29696;55.698;37.460;2023-05-25T06:51:58;99479.66;;;22.36;59.92
44027;BME280;29696;55.698;37.460;2023-05-25T06:54:25;99477.88;;;22.23;59.89
44027;BME280;29696;55.698;37.460;2023-05-25T06:56:51;99488.22;;;22.13;60.79
44027;BME280;29696;55.698;37.460;2023-05-25T06:59:18;99480.41;;;22.05;60.82
44027;BME280;29696;55.698;37.460;2023-05-25T07:01:45;99484.50;;;22.07;60.92
44027;BME280;29696;55.698;37.460;2023-05-25T07:04:12;99485.34;;;22.08;61.46
44027;BME280;29696;55.698;37.460;2023-05-25T07:06:38;99487.19;;;22.14;61.26
44027;BME280;29696;55.698;37.460;2023-05-25T07:09:05;99484.50;;;22.07;61.10
44027;BME280;29696;55.698;37.460;2023-05-25T07:11:32;99492.00;;;21.99;61.45
44027;BME280;29696;55.698;37.460;2023-05-25T07:13:58;99485.84;;;21.78;61.52
44027;BME280;29696;55.698;37.460;2023-05-25T07:16:25;99493.53;;;21.61;62.62
44027;BME280;29696;55.698;37.460;2023-05-25T07:18:51;99489.00;;;21.42;62.81
44027;BME280;29696;55.698;37.460;2023-05-25T07:21:18;99487.50;;;21.26;63.70
44027;BME280;29696;55.698;37.460;2023-05-25T07:23:44;99490.22;;;21.13;63.73
44027;BME280;29696;55.698;37.460;2023-05-25T07:26:12;99489.78;;;21.03;64.54
44027;BME280;29696;55.698;37.460;2023-05-25T07:28:38;99483.81;;;20.94;65.31
44027;BME280;29696;55.698;37.460;2023-05-25T07:31:05;99487.09;;;20.89;64.80
44027;BME280;29696;55.698;37.460;2023-05-25T07:33:31;99483.34;;;20.77;65.32
44027;BME280;29696;55.698;37.460;2023-05-25T07:35:57;99484.34;;;20.63;66.43
44027;BME280;29696;55.698;37.460;2023-05-25T07:38:24;99485.38;;;20.55;67.30
44027;BME280;29696;55.698;37.460;2023-05-25T07:40:51;99477.66;;;20.45;67.20
44027;BME280;29696;55.698;37.460;2023-05-25T07:43:17;99488.16;;;20.34;67.84
44027;BME280;29696;55.698;37.460;2023-05-25T07:45:44;99476.56;;;20.20;69.09
44027;BME280;29696;55.698;37.460;2023-05-25T07:48:10;99485.56;;;20.05;70.96
44027;BME280;29696;55.698;37.460;2023-05-25T07:50:36;99491.25;;;19.89;71.26
44027;BME280;29696;55.698;37.460;2023-05-25T07:53:03;99493.84;;;19.76;71.77
44027;BME280;29696;55.698;37.460;2023-05-25T07:55:29;99486.34;;;19.65;72.93
44027;BME280;29696;55.698;37.460;2023-05-25T07:57:56;99483.34;;;19.53;74.14
44027;BME280;29696;55.698;37.460;2023-05-25T08:00:22;99491.78;;;19.50;74.48
44027;BME280;29696;55.698;37.460;2023-05-25T08:02:48;99488.28;;;19.49;75.24
44027;BME280;29696;55.698;37.460;2023-05-25T08:05:15;99498.38;;;19.47;75.35
44027;BME280;29696;55.698;37.460;2023-05-25T08:07:42;99491.34;;;19.46;76.32
44027;BME280;29696;55.698;37.460;2023-05-25T08:10:08;99502.47;;;19.43;75.57
44027;BME280;29696;55.698;37.460;2023-05-25T08:12:35;99492.97;;;19.41;76.54
44027;BME280;29696;55.698;37.460;2023-05-25T08:15:02;99497.63;;;19.32;76.83
44027;BME280;29696;55.698;37.460;2023-05-25T08:17:33;99494.25;;;19.23;77.40
44027;BME280;29696;55.698;37.460;2023-05-25T08:20:00;99494.47;;;19.22;79.11
44027;BME280;29696;55.698;37.460;2023-05-25T08:22:27;99495.50;;;19.21;79.28
44027;BME280;29696;55.698;37.460;2023-05-25T08:24:53;99489.94;;;19.22;80.05
44027;BME280;29696;55.698;37.460;2023-05-25T08:27:19;99496.13;;;19.23;80.39
44027;BME280;29696;55.698;37.460;2023-05-25T08:29:46;99498.97;;;19.14;80.35
44027;BME280;29696;55.698;37.460;2023-05-25T08:32:12;99490.41;;;19.04;80.14
44027;BME280;29696;55.698;37.460;2023-05-25T08:34:39;99496.13;;;19.01;80.82
44027;BME280;29696;55.698;37.460;2023-05-25T08:37:05;99497.28;;;18.92;81.16
44027;BME280;29696;55.698;37.460;2023-05-25T08:39:32;99497.03;;;18.87;81.25
44027;BME280;29696;55.698;37.460;2023-05-25T08:41:58;99492.88;;;18.84;81.98
44027;BME280;29696;55.698;37.460;2023-05-25T08:44:25;99497.63;;;18.82;82.15
44027;BME280;29696;55.698;37.460;2023-05-25T08:46:55;99497.69;;;18.89;82.21
44027;BME280;29696;55.698;37.460;2023-05-25T08:49:22;99496.66;;;18.90;82.69
44027;BME280;29696;55.698;37.460;2023-05-25T08:51:53;99497.34;;;18.99;83.01
44027;BME280;29696;55.698;37.460;2023-05-25T08:54:33;99499.31;;;19.11;83.08
44027;BME280;29696;55.698;37.460;2023-05-25T08:57:07;99502.16;;;19.03;82.09
44027;BME280;29696;55.698;37.460;2023-05-25T09:03:12;99504.78;;;19.25;83.41
44027;BME280;29696;55.698;37.460;2023-05-25T09:05:41;99501.81;;;19.13;83.76
44027;BME280;29696;55.698;37.460;2023-05-25T09:08:07;99498.69;;;19.09;82.91
44027;BME280;29696;55.698;37.460;2023-05-25T09:10:36;99501.38;;;19.09;83.14
44027;BME280;29696;55.698;37.460;2023-05-25T09:13:03;99499.47;;;19.03;82.98
44027;BME280;29696;55.698;37.460;2023-05-25T09:15:31;99499.69;;;19.08;84.51
44027;BME280;29696;55.698;37.460;2023-05-25T09:17:58;99491.66;;;19.08;84.92
44027;BME280;29696;55.698;37.460;2023-05-25T09:20:24;99492.56;;;19.15;85.41
44027;BME280;29696;55.698;37.460;2023-05-25T09:22:57;99494.41;;;19.15;85.32
44027;BME280;29696;55.698;37.460;2023-05-25T09:25:28;99498.19;;;19.21;86.19
44027;BME280;29696;55.698;37.460;2023-05-25T09:27:56;99498.63;;;19.24;85.67
44027;BME280;29696;55.698;37.460;2023-05-25T09:30:26;99493.34;;;19.37;86.60
44027;BME280;29696;55.698;37.460;2023-05-25T09:33:11;99493.50;;;19.57;86.92
44027;BME280;29696;55.698;37.460;2023-05-25T09:35:39;99498.97;;;19.43;84.50
44027;BME280;29696;55.698;37.460;2023-05-25T09:38:06;99491.78;;;19.50;84.77
44027;BME280;29696;55.698;37.460;2023-05-25T09:40:33;99488.09;;;19.51;84.76
44027;BME280;29696;55.698;37.460;2023-05-25T09:43:03;99488.72;;;19.53;83.45
44027;BME280;29696;55.698;37.460;2023-05-25T09:45:30;99481.91;;;19.50;82.56
44027;BME280;29696;55.698;37.460;2023-05-25T09:47:57;99487.50;;;19.55;83.54
44027;BME280;29696;55.698;37.460;2023-05-25T09:50:28;99489.63;;;19.60;84.27
44027;BME280;29696;55.698;37.460;2023-05-25T09:52:59;99491.78;;;19.50;83.27
44027;BME280;29696;55.698;37.460;2023-05-25T09:55:27;99490.94;;;19.43;83.08
44027;BME280;29696;55.698;37.460;2023-05-25T09:57:54;99492.78;;;19.42;83.84
44027;BME280;29696;55.698;37.460;2023-05-25T10:00:22;99487.41;;;19.42;83.97
44027;BME280;29696;55.698;37.460;2023-05-25T10:02:50;99488.81;;;19.38;84.25
44027;BME280;29696;55.698;37.460;2023-05-25T10:05:16;99489.28;;;19.42;85.25
44027;BME280;29696;55.698;37.460;2023-05-25T10:07:44;99487.03;;;19.45;85.62
44027;BME280;29696;55.698;37.460;2023-05-25T10:10:14;99486.03;;;19.53;84.77
44027;BME280;29696;55.698;37.460;2023-05-25T10:12:43;99482.34;;;19.54;83.87
44027;BME280;29696;55.698;37.460;2023-05-25T10:15:13;99483.69;;;19.65;83.65
44027;BME280;29696;55.698;37.460;2023-05-25T10:17:44;99484.09;;;19.68;81.65
44027;BME280;29696;55.698;37.460;2023-05-25T10:20:15;99480.44;;;19.76;81.48
44027;BME280;29696;55.698;37.460;2023-05-25T10:22:53;99489.44;;;19.96;81.32
44027;BME280;29696;55.698;37.460;2023-05-25T10:25:25;99480.75;;;19.94;81.30
44027;BME280;29696;55.698;37.460;2023-05-25T10:28:06;99476.50;;;20.13;81.03
44027;BME280;29696;55.698;37.460;2023-05-25T10:30:33;99481.44;;;20.10;80.51
44027;BME280;29696;55.698;37.460;2023-05-25T10:33:02;99479.81;;;20.15;78.66
44027;BME280;29696;55.698;37.460;2023-05-25T10:35:29;99483.22;;;20.37;80.53
44027;BME280;29696;55.698;37.460;2023-05-25T10:37:57;99479.59;;;20.58;80.69
44027;BME280;29696;55.698;37.460;2023-05-25T10:40:24;99471.97;;;20.62;76.75
44027;BME280;29696;55.698;37.460;2023-05-25T10:42:51;99470.75;;;20.71;75.48
44027;BME280;29696;55.698;37.460;2023-05-25T10:45:18;99469.72;;;20.79;75.47
44027;BME280;29696;55.698;37.460;2023-05-25T10:47:45;99461.06;;;20.83;74.78
44027;BME280;29696;55.698;37.460;2023-05-25T10:50:20;99468.50;;;21.08;75.44
44027;BME280;29696;55.698;37.460;2023-05-25T10:52:57;99468.09;;;21.17;75.88
44027;BME280;29696;55.698;37.460;2023-05-25T10:55:24;99456.31;;;21.05;74.62
44027;BME280;29696;55.698;37.460;2023-05-25T10:58:10;99455.91;;;21.28;74.53
44027;BME280;29696;55.698;37.460;2023-05-25T11:00:38;99457.16;;;21.19;73.09
44027;BME280;29696;55.698;37.460;2023-05-25T11:03:05;99456.94;;;21.27;74.05
44027;BME280;29696;55.698;37.460;2023-05-25T11:05:37;99456.31;;;21.38;75.73
44027;BME280;29696;55.698;37.460;2023-05-25T11:08:08;99443.50;;;21.47;74.44
44027;BME280;29696;55.698;37.460;2023-05-25T11:11:07;99444.69;;;21.78;75.24
44027;BME280;29696;55.698;37.460;2023-05-25T11:13:37;99441.63;;;21.48;71.72
44027;BME280;29696;55.698;37.460;2023-05-25T11:19:17;99435.22;;;21.29;71.39
44027;BME280;29696;55.698;37.460;2023-05-25T11:21:43;99430.06;;;21.14;72.36
44027;BME280;29696;55.698;37.460;2023-05-25T11:24:14;99440.38;;;21.24;73.80
44027;BME280;29696;55.698;37.460;2023-05-25T11:26:58;99432.34;;;21.37;75.16
44027;BME280;29696;55.698;37.460;2023-05-25T11:29:30;99441.03;;;21.12;74.38
44027;BME280;29696;55.698;37.460;2023-05-25T11:31:56;99435.03;;;20.77;72.39
44027;BME280;29696;55.698;37.460;2023-05-25T11:34:23;99427.97;;;20.63;73.08
44027;BME280;29696;55.698;37.460;2023-05-25T11:36:55;99427.78;;;20.71;75.05
44027;BME280;29696;55.698;37.460;2023-05-25T11:39:29;99422.41;;;20.78;75.66
44027;BME280;29696;55.698;37.460;2023-05-25T11:42:04;99425.94;;;20.98;73.85
44027;BME280;29696;55.698;37.460;2023-05-25T11:44:34;99423.25;;;20.91;73.59
44027;BME280;29696;55.698;37.460;2023-05-25T11:47:08;99428.41;;;21.26;74.37
44027;BME280;29696;55.698;37.460;2023-05-25T11:49:40;99424.69;;;21.40;72.97
44027;BME280;29696;55.698;37.460;2023-05-25T11:52:08;99419.94;;;21.42;72.87
44027;BME280;29696;55.698;37.460;2023-05-25T11:54:36;99416.41;;;21.49;71.43
44027;BME280;29696;55.698;37.460;2023-05-25T11:57:17;99422.13;;;21.79;71.11
44027;BME280;29696;55.698;37.460;2023-05-25T11:59:54;99426.66;;;21.85;70.77
44027;BME280;29696;55.698;37.460;2023-05-25T12:02:23;99424.59;;;21.74;70.64
44027;BME280;29696;55.698;37.460;2023-05-25T12:04:57;99425.19;;;21.96;72.12
44027;BME280;29696;55.698;37.460;2023-05-25T12:07:26;99418.34;;;21.86;71.58
44027;BME280;29696;55.698;37.460;2023-05-25T12:10:06;99417.94;;;21.96;71.00
44027;BME280;29696;55.698;37.460;2023-05-25T12:12:46;99421.25;;;21.92;70.91
44027;BME280;29696;55.698;37.460;2023-05-25T12:15:20;99412.75;;;21.95;70.15
44027;BME280;29696;55.698;37.460;2023-05-25T12:17:47;99413.66;;;21.75;68.33
44027;BME280;29696;55.698;37.460;2023-05-25T12:20:15;99413.03;;;21.73;70.04
44027;BME280;29696;55.698;37.460;2023-05-25T12:22:43;99411.41;;;21.59;69.34
44027;BME280;29696;55.698;37.460;2023-05-25T12:25:11;99409.34;;;21.61;70.14
44027;BME280;29696;55.698;37.460;2023-05-25T12:27:38;99405.22;;;21.58;69.74
44027;BME280;29696;55.698;37.460;2023-05-25T12:30:08;99411.84;;;21.56;69.15
44027;BME280;29696;55.698;37.460;2023-05-25T12:33:00;99399.38;;;21.75;69.77
44027;BME280;29696;55.698;37.460;2023-05-25T12:35:28;99404.00;;;21.34;69.48
44027;BME280;29696;55.698;37.460;2023-05-25T12:38:17;99407.72;;;21.47;70.05
44027;BME280;29696;55.698;37.460;2023-05-25T12:40:43;99400.94;;;21.04;70.05
44027;BME280;29696;55.698;37.460;2023-05-25T12:43:10;99406.09;;;21.12;71.73
44027;BME280;29696;55.698;37.460;2023-05-25T12:45:41;99399.25;;;21.23;69.45
44027;BME280;29696;55.698;37.460;2023-05-25T12:48:07;99395.53;;;21.17;69.69
44027;BME280;29696;55.698;37.460;2023-05-25T12:50:34;99394.13;;;21.15;69.13
44027;BME280;29696;55.698;37.460;2023-05-25T12:53:02;99398.88;;;21.13;68.44
44027;BME280;29696;55.698;37.460;2023-05-25T12:55:30;99403.63;;;21.11;68.62
44027;BME280;29696;55.698;37.460;2023-05-25T12:58:00;99408.97;;;21.11;69.35
44027;BME280;29696;55.698;37.460;2023-05-25T13:00:38;99401.56;;;21.13;68.79
44027;BME280;29696;55.698;37.460;2023-05-25T13:03:05;99401.34;;;21.08;69.18
44027;BME280;29696;55.698;37.460;2023-05-25T13:05:36;99409.00;;;21.04;69.68